Weather observations for the past three days for
Branson West Muni - Emerson Field
Imperial (Metric)
Date Time (cdt) Wind (mph) Vis. (mi.) Weather Sky Cond. Temperature (ºF) Relative Humidity Wind Chill (°F) Heat Index (°F) Pressure Precipitation (in)
Air Dwpt 6 hour altimeter (in) sea level (mb) 1 hr 3 hr 6 hr
Max. Min.
08 05:35 Calm 9.00 NULL NULL 48.2 44.6 87% 29.93 0.0
08 05:15 Calm 10.00 NULL NULL 50 44.6 82% 29.92 0.0
08 04:55 Calm 9.00 NULL NULL 50 44.6 82% 29.92 0.0
08 04:35 Calm 9.00 NULL NULL 50 44.6 82% 29.92 0.0
08 04:15 Calm 9.00 NULL NULL 50 44.6 82% 29.92 0.0
08 03:55 Calm 9.00 NULL NULL 50 44.6 82% 29.92 0.0
08 03:35 Calm 9.00 NULL NULL 50 44.6 82% 29.93 0.0
08 03:15 Calm 8.00 NULL NULL 48.2 44.6 87% 29.93 0.0
08 02:55 Calm 9.00 NULL NULL 50 46.4 88% 29.94 0.0
08 02:35 Calm 10.00 NULL NULL 50 44.6 82% 29.94 0.0
08 02:15 Calm 10.00 NULL NULL 53.6 44.6 72% 29.95 0.0
08 01:55 Calm 9.00 NULL NULL 51.8 44.6 77% 29.95 0.0
08 01:35 Vrbl 3 9.00 NULL NULL 53.6 44.6 72% 29.95 0.0
08 01:15 Calm 9.00 NULL NULL 51.8 44.6 77% 29.96 0.0
08 00:55 Calm 10.00 NULL NULL 53.6 44.6 72% 29.97 0.0
08 00:35 Calm 10.00 NULL NULL 53.6 44.6 72% 29.96 0.0
08 00:15 Calm 9.00 NULL NULL 53.6 44.6 72% 29.97 0.0
07 23:55 Calm 9.00 NULL NULL 53.6 42.8 67% 29.97 0.0
07 23:35 Calm 10.00 NULL NULL 51.8 42.8 72% 29.97 0.0
07 23:15 Calm 9.00 NULL NULL 51.8 42.8 72% 29.98 0.0
07 22:55 Calm 9.00 NULL NULL 53.6 42.8 67% 29.98 0.0
07 22:35 Calm 9.00 NULL NULL 53.6 41 63% 29.98 0.0
07 22:15 Calm 9.00 NULL NULL 55.4 41 59% 29.98 0.0
07 21:55 Calm 9.00 NULL NULL 57.2 41 55% 29.97 0.0
07 21:35 Calm 9.00 NULL NULL 57.2 41 55% 29.97 0.0
07 21:15 Calm 9.00 NULL NULL 59 39.2 48% 29.96 0.0
07 20:55 Calm 9.00 NULL NULL 59 39.2 48% 29.95 0.0
07 20:35 Vrbl 3 9.00 NULL NULL 59 39.2 48% 29.94 0.0
07 20:15 Calm 9.00 NULL NULL 60.8 39.2 45% 29.94 0.0
07 19:55 S 3 8.00 NULL NULL 62.6 39.2 42% 29.94 0.0
07 19:35 SW 5 9.00 NULL NULL 62.6 37.4 39% 29.94 0.0
07 19:15 SW 7 9.00 NULL NULL 64.4 39.2 40% 29.94 0.0
07 18:55 SW 6 8.00 NULL NULL 66.2 37.4 35% 29.94 0.0
07 18:35 SW 8 8.00 NULL NULL 66.2 37.4 35% 29.94 0.0
07 18:15 Vrbl 6 8.00 NULL NULL 66.2 37.4 35% 29.94 0.0
07 17:55 Calm 9.00 NULL NULL 66.2 37.4 35% 29.95 0.0
07 17:35 Vrbl 6 G 13 9.00 NULL NULL 68 37.4 33% 29.95 0.0
07 17:15 Vrbl 6 G 14 8.00 NULL NULL 68 35.6 30% 29.96 0.0
07 16:55 Vrbl 6 G 13 8.00 NULL NULL 68 37.4 33% 29.96 0.0
07 16:35 Vrbl 5 G 17 9.00 NULL NULL 66.2 35.6 32% 29.96 0.0
07 16:15 Vrbl 5 8.00 NULL NULL 66.2 35.6 32% 29.97 0.0
07 15:15 Calm 8.00 NULL NULL 64.4 35.6 34% 29.99 0.0
07 14:55 Vrbl 5 9.00 NULL NULL 66.2 35.6 32% 30 0.0
07 14:35 W 9 9.00 NULL NULL 66.2 35.6 32% 30.01 0.0
07 14:15 W 8 G 20 9.00 NULL NULL 64.4 33.8 32% 30.01 0.0
07 13:55 Vrbl 3 G 15 9.00 NULL NULL 64.4 32 30% 30.02 0.0
07 13:35 Vrbl 7 G 14 9.00 NULL NULL 64.4 33.8 32% 30.02 0.0
07 13:15 Vrbl 7 9.00 NULL NULL 62.6 32 32% 30.03 0.0
07 12:55 Vrbl 7 9.00 NULL NULL 62.6 32 32% 30.04 0.0
07 12:35 W 7 G 14 8.00 NULL NULL 62.6 30.2 30% 30.06 0.0
07 12:15 SW 8 9.00 NULL NULL 60.8 32 34% 30.06 0.0
07 11:55 SW 5 8.00 NULL NULL 60.8 30.2 31% 30.07 0.0
07 11:35 Vrbl 6 G 13 8.00 NULL NULL 60.8 30.2 31% 30.07 0.0
07 11:15 Vrbl 3 8.00 NULL NULL 60.8 35.6 39% 30.08 0.0
07 10:55 SE 7 9.00 NULL NULL 59 33.8 39% 30.08 0.0
07 10:35 Calm 9.00 NULL NULL 59 33.8 39% 30.08 0.0
07 10:15 Calm 8.00 NULL NULL 57.2 33.8 41% 30.08 0.0
07 09:55 Vrbl 5 9.00 NULL NULL 57.2 35.6 44% 30.08 0.0
07 09:35 Vrbl 3 8.00 NULL NULL 57.2 37.4 48% 30.09 0.0
07 09:15 Calm 9.00 NULL NULL 53.6 37.4 54% 30.09 0.0
07 08:55 Calm 9.00 NULL NULL 53.6 39.2 58% 30.09 0.0
07 08:35 Calm 9.00 NULL NULL 50 42.8 76% 30.09 0.0
07 08:15 Calm 9.00 NULL NULL 48.2 42.8 82% 30.09 0.0
07 07:55 Calm 8.00 NULL NULL 46.4 42.8 87% 30.09 0.0
07 07:35 Calm 9.00 NULL NULL 44.6 41 87% 30.09 0.0
07 07:15 Calm 8.00 NULL NULL 42.8 39.2 87% 30.08 0.0
07 06:55 Calm 9.00 NULL NULL 41 37.4 87% 30.08 0.0
07 06:35 Calm 9.00 NULL NULL 41 39.2 93% 30.07 0.0
07 06:15 Calm 9.00 NULL NULL 41 39.2 93% 30.07 0.0
07 05:55 Calm 9.00 NULL NULL 41 37.4 87% 30.06 0.0
07 05:35 Calm 10.00 NULL NULL 39.2 37.4 93% 30.06 0.0
07 05:15 Calm 10.00 NULL NULL 39.2 37.4 93% 30.07 0.0
07 04:55 Calm 9.00 NULL NULL 39.2 37.4 93% 30.06 0.0
07 04:35 Calm 9.00 NULL NULL 39.2 37.4 93% 30.07 0.0
07 04:15 W 3 10.00 NULL NULL 41 35.6 81% 30.06 0.0
07 03:55 Calm 10.00 NULL NULL 42.8 33.8 71% 30.05 0.0
07 03:35 Calm 10.00 NULL NULL 42.8 33.8 71% 30.05 0.0
07 03:15 Calm 10.00 NULL NULL 42.8 35.6 76% 30.05 0.0
07 02:55 Calm 9.00 NULL NULL 42.8 35.6 76% 30.05 0.0
07 02:35 Calm 9.00 NULL NULL 44.6 35.6 71% 30.06 0.0
07 02:15 Calm 9.00 NULL NULL 44.6 33.8 66% 30.07 0.0
07 01:55 Calm 10.00 NULL NULL 44.6 33.8 66% 30.06 0.0
07 01:35 NE 5 10.00 NULL NULL 44.6 33.8 66% 43 30.06 0.0
07 01:15 NE 6 9.00 NULL NULL 46.4 35.6 66% 44 30.06 0.0
07 00:55 N 7 9.00 NULL NULL 46.4 35.6 66% 43 30.06 0.0
07 00:35 N 7 9.00 NULL NULL 46.4 33.8 62% 43 30.06 0.0
07 00:15 N 8 9.00 NULL NULL 48.2 35.6 62% 45 30.06 0.0
06 23:55 N 8 9.00 NULL NULL 48.2 35.6 62% 45 30.05 0.0
06 23:35 N 8 9.00 NULL NULL 48.2 35.6 62% 45 30.05 0.0
06 23:15 N 8 10.00 NULL NULL 48.2 35.6 62% 45 30.04 0.0
06 22:55 N 8 10.00 NULL NULL 48.2 35.6 62% 45 30.05 0.0
06 22:35 N 8 10.00 NULL NULL 50 35.6 58% 47 30.04 0.0
06 22:15 N 7 9.00 NULL NULL 50 35.6 58% 48 30.04 0.0
06 21:55 N 7 10.00 NULL NULL 50 35.6 58% 48 30.03 0.0
06 21:35 N 7 9.00 NULL NULL 51.8 35.6 54% 30.03 0.0
06 21:15 N 7 10.00 NULL NULL 51.8 35.6 54% 30.03 0.0
06 20:55 N 7 9.00 NULL NULL 51.8 35.6 54% 30.02 0.0
06 20:35 N 6 10.00 NULL NULL 53.6 35.6 51% 30.02 0.0
06 20:15 N 6 9.00 NULL NULL 55.4 35.6 47% 30.01 0.0
06 19:55 N 5 9.00 NULL NULL 55.4 35.6 47% 30 0.0
06 19:35 N 5 9.00 NULL NULL 57.2 37.4 48% 30 0.0
06 19:15 NE 8 9.00 NULL NULL 59 33.8 39% 30 0.0
06 18:55 N 7 G 14 9.00 NULL NULL 59 33.8 39% 30 0.0
06 18:35 NE 8 8.00 NULL NULL 60.8 33.8 36% 29.98 0.0
06 18:15 N 8 G 16 8.00 NULL NULL 60.8 33.8 36% 29.97 0.0
06 17:55 NE 9 G 20 9.00 NULL NULL 60.8 33.8 36% 29.96 0.0
06 17:35 NE 12 G 18 8.00 NULL NULL 60.8 33.8 36% 29.97 0.0
06 17:15 N 9 9.00 NULL NULL 59 37.4 45% 29.97 0.0
06 16:55 N 12 G 18 8.00 NULL NULL 60.8 35.6 39% 29.97 0.0
06 16:35 Vrbl 7 9.00 NULL NULL 60.8 37.4 42% 29.97 0.0
06 16:15 Vrbl 7 G 15 8.00 NULL NULL 59 37.4 45% 29.98 0.0
06 15:55 NE 7 9.00 NULL NULL 59 37.4 45% 29.99 0.0
06 15:35 NE 10 9.00 NULL NULL 59 39.2 48% 30 0.0
06 15:15 Vrbl 7 G 14 9.00 NULL NULL 59 39.2 48% 30 0.0
06 14:55 NE 7 G 15 9.00 NULL NULL 59 41 51% 30.01 0.0
06 14:35 N 9 G 15 9.00 NULL NULL 59 39.2 48% 30.01 0.0
06 14:15 Vrbl 6 G 15 8.00 NULL NULL 59 39.2 48% 30.01 0.0
06 13:55 Vrbl 7 G 13 8.00 NULL NULL 59 39.2 48% 30.02 0.0
06 13:35 N 6 G 14 8.00 NULL NULL 57.2 39.2 51% 30.04 0.0
06 13:15 N 7 9.00 NULL NULL 57.2 39.2 51% 30.05 0.0
06 12:55 NE 6 9.00 NULL NULL 55.4 39.2 55% 30.06 0.0
06 12:35 N 5 G 12 8.00 NULL NULL 55.4 39.2 55% 30.05 0.0
06 12:15 Vrbl 6 9.00 NULL NULL 55.4 39.2 55% 30.04 0.0
06 11:55 NE 7 G 13 9.00 NULL NULL 55.4 39.2 55% 30.05 0.0 0.01
06 11:35 NE 9 9.00 NULL NULL 55.4 39.2 55% 30.03 0.0
06 11:15 NE 9 G 15 8.00 NULL NULL 53.6 39.2 58% 30.03 0.0
06 10:55 Vrbl 7 G 18 9.00 NULL NULL 51.8 39.2 62% 30.03 0.0
06 10:35 NE 8 9.00 NULL NULL 51.8 39.2 62% 30.03 0.0
06 10:15 NE 9 G 15 9.00 NULL NULL 50 39.2 67% 47 30.03 0.0
06 09:55 N 8 G 16 9.00 NULL NULL 50 41 71% 47 30.03 0.0
06 09:35 NE 10 G 16 9.00 NULL NULL 48.2 41 76% 44 30.03 0.0
06 09:15 N 9 9.00 NULL NULL 48.2 41 76% 45 30.02 0.0
06 08:55 NE 9 9.00 NULL NULL 48.2 42.8 82% 45 30.02 0.0
06 08:35 N 8 G 15 9.00 NULL NULL 48.2 42.8 82% 45 30.02 0.0
06 08:15 NE 6 G 14 8.00 NULL NULL 46.4 42.8 87% 44 30.01 0.0
06 07:55 N 10 9.00 NULL NULL 46.4 42.8 87% 42 30.01 0.0
06 07:35 N 9 9.00 NULL NULL 46.4 42.8 87% 42 30.01 0.0
06 07:15 N 9 8.00 NULL NULL 46.4 42.8 87% 42 30 0.0
06 06:55 N 7 9.00 NULL NULL 44.6 42.8 93% 41 30.01 0.0
06 06:35 Vrbl 5 9.00 NULL NULL 44.6 42.8 93% 43 29.98 0.0
06 06:15 N 7 10.00 NULL NULL 44.6 42.8 93% 41 29.97 0.0
06 05:55 N 6 9.00 NULL NULL 44.6 42.8 93% 42 29.97 0.0
06 05:35 N 6 9.00 NULL NULL 44.6 42.8 93% 42 29.95 0.0
06 05:15 N 6 10.00 NULL NULL 44.6 42.8 93% 42 29.94 0.0
06 04:55 NE 5 10.00 NULL NULL 44.6 42.8 93% 43 29.92 0.0
06 04:35 E 5 9.00 NULL NULL 44.6 42.8 93% 43 29.92 0.0
06 04:15 Calm 9.00 NULL NULL 44.6 42.8 93% 29.94 0.0
06 03:55 Calm 9.00 NULL NULL 44.6 42.8 93% 29.93 0.0
06 03:35 E 3 9.00 NULL NULL 44.6 42.8 93% 29.91 0.0
06 03:15 Calm 10.00 NULL NULL 44.6 42.8 93% 29.9 0.0
06 02:55 NE 7 9.00 NULL NULL 44.6 42.8 93% 41 29.88 0.0
06 02:35 Vrbl 5 10.00 NULL NULL 44.6 42.8 93% 43 29.89 0.0
06 02:15 Vrbl 5 G 14 10.00 NULL NULL 44.6 42.8 93% 43 29.91 0.0
06 01:55 NE 7 9.00 NULL NULL 44.6 42.8 93% 41 29.91 0.0
06 01:35 NE 8 9.00 NULL NULL 44.6 44.6 100% 41 29.91 0.0
06 01:15 N 8 10.00 NULL NULL 44.6 44.6 100% 41 29.92 0.0
06 00:55 N 7 10.00 NULL NULL 44.6 44.6 100% 41 29.91 0.0
06 00:35 N 8 9.00 NULL NULL 44.6 44.6 100% 41 29.9 0.0
06 00:15 Vrbl 5 5.00 Fog/Mist NULL 44.6 44.6 100% 43 29.9 0.0
05 23:55 NE 7 6.00 Fog/Mist NULL 44.6 44.6 100% 41 29.89 0.0
05 23:35 Vrbl 3 3.00 Fog/Mist NULL 44.6 44.6 100% 29.89 0.0
05 23:15 Vrbl 7 G 15 3.00 Fog/Mist NULL 44.6 44.6 100% 41 29.88 0.0
05 22:55 NE 7 G 16 4.00 Fog/Mist NULL 46.4 46.4 100% 43 29.88 0.0
05 22:35 NE 7 3.00 Fog/Mist NULL 46.4 46.4 100% 43 29.87 0.0
05 22:15 NE 6 4.00 Fog/Mist NULL 46.4 46.4 100% 44 29.86 0.0
05 21:55 Vrbl 5 G 14 3.00 Light Rain Fog/Mist NULL 46.4 46.4 100% 45 29.86 0.0 0.02
05 21:35 Calm 4.00 Unknown Precip Fog/Mist NULL 46.4 46.4 100% 29.86 0.0
05 21:15 NE 7 3.00 Fog/Mist NULL 46.4 46.4 100% 43 29.83 0.0
05 20:55 Vrbl 7 2.00 Fog/Mist NULL 46.4 46.4 100% 43 29.82 0.0
05 20:35 NE 9 3.00 Fog/Mist NULL 46.4 46.4 100% 42 29.81 0.0
05 20:15 Vrbl 6 3.00 Fog/Mist NULL 46.4 46.4 100% 44 29.82 0.0
05 19:55 N 9 G 22 6.00 Fog/Mist NULL 46.4 44.6 93% 42 29.82 0.0
05 19:35 NE 10 G 18 3.00 Fog/Mist NULL 46.4 46.4 100% 42 29.8 0.0
05 19:15 N 14 1.75 Fog/Mist NULL 46.4 46.4 100% 41 29.8 0.0
05 18:55 NE 7 G 17 2.50 Fog/Mist NULL 48.2 46.4 94% 46 29.78 0.0
05 18:35 NE 13 5.00 Light Rain Fog/Mist NULL 48.2 46.4 94% 43 29.78 0.0
05 18:15 NE 8 G 20 6.00 Fog/Mist NULL 48.2 44.6 87% 45 29.78 0.0
05 17:55 NE 14 G 23 4.00 Fog/Mist NULL 48.2 46.4 94% 43 29.76 0.0
05 17:35 NE 13 G 21 5.00 Fog/Mist NULL 48.2 46.4 94% 43 29.76 0.0
05 17:15 N 9 G 16 4.00 Fog/Mist NULL 50 48.2 94% 47 29.77 0.0
05 16:55 NE 13 G 20 7.00 NULL NULL 50 48.2 94% 46 29.76 0.0
05 16:35 NE 14 G 21 5.00 Fog/Mist NULL 51.8 50 94% 29.75 0.0
05 16:15 Vrbl 6 G 17 7.00 NULL NULL 51.8 50 94% 29.75 0.0
05 15:55 NE 12 G 21 7.00 NULL NULL 51.8 50 94% 29.75 0.0
05 15:35 N 12 G 18 9.00 NULL NULL 51.8 50 94% 29.76 0.0
05 15:15 N 13 G 21 5.00 Fog/Mist NULL 53.6 51.8 94% 29.75 0.0
05 14:55 NE 12 G 18 4.00 Fog/Mist NULL 53.6 53.6 100% 29.74 0.0
05 14:35 NE 9 G 17 1.75 Fog/Mist NULL 53.6 53.6 100% 29.75 0.0
05 14:15 N 9 G 16 1.75 Unknown Precip Fog/Mist NULL 53.6 53.6 100% 29.75 0.0
05 13:55 N 12 G 20 1.50 Fog/Mist NULL 53.6 53.6 100% 29.74 0.0
05 13:35 N 15 1.25 Light Rain Fog/Mist NULL 55.4 55.4 100% 29.74 0.0
05 13:15 NE 10 G 18 0.75 Light Rain Fog/Mist NULL 55.4 55.4 100% 29.73 0.0
05 12:55 NE 7 G 16 2.50 Fog/Mist NULL 57.2 55.4 94% 29.73 0.0
05 12:35 NE 8 G 14 4.00 Fog/Mist NULL 59 57.2 94% 29.73 0.0
05 12:15 N 9 3.00 Light Rain Fog/Mist NULL 60.8 57.2 88% 29.73 0.0
05 11:55 NE 13 G 18 6.00 Fog/Mist NULL 60.8 57.2 88% 29.72 0.0
05 11:35 N 10 G 17 7.00 NULL NULL 60.8 59 94% 29.72 0.0
05 11:15 NE 7 7.00 NULL NULL 64.4 60.8 88% 29.72 0.0
05 10:55 Vrbl 7 8.00 NULL NULL 64.4 60.8 88% 29.72 0.0 0.01
05 10:35 NE 8 G 15 8.00 NULL NULL 64.4 60.8 88% 29.71 0.0
05 10:15 E 12 8.00 NULL NULL 64.4 60.8 88% 29.7 0.0
05 09:55 Vrbl 6 G 13 6.00 Fog/Mist NULL 62.6 60.8 94% 29.71 0.0
05 09:35 Vrbl 6 G 13 7.00 NULL NULL 62.6 60.8 94% 29.71 0.0
05 09:15 E 5 8.00 NULL NULL 60.8 60.8 100% 29.73 0.0
05 08:55 NE 8 8.00 NULL NULL 60.8 60.8 100% 29.71 0.0
05 08:35 E 10 9.00 NULL NULL 60.8 59 94% 29.72 0.0
05 08:15 Vrbl 5 7.00 NULL NULL 60.8 60.8 100% 29.72 0.0
05 07:55 E 3 4.00 Fog/Mist NULL 60.8 60.8 100% 29.71 0.0
05 07:15 Calm 6.00 Fog/Mist NULL 59 59 100% 29.7 0.0
05 06:55 NE 6 7.00 NULL NULL 59 59 100% 29.7 0.0
05 06:35 N 9 6.00 Fog/Mist NULL 59 59 100% 29.69 0.0
05 05:55 SW 5 5.00 Light Rain Fog/Mist NULL 60.8 60.8 100% 29.67 0.0 0.01
Date Time (cdt) Wind (mph) Vis. (mi.) Weather Sky Cond. Air Dwpt Max. Min. Relative Humidity Wind Chill (°F) Heat Index (°F) altimeter (in) sea level (mb) 1 hr 3 hr 6 hr
6 hour
Temperature (ºF) Pressure Precipitation (in)